Terminal Aerodrome Forecast
Issued by NWS

Home | Current Version | Previous Version | Text Only | Print | Product List | Glossary On
Versions: 1 2 3 4 5 6 7 8 9 10 11 12 13
000
FTUS45 KVEF 230539
TAFHND
TAF
KHND 230539Z 2306/2406 23018G25KT P6SM SCT100 BKN200
     FM231100 25012KT P6SM FEW100 BKN200
     FM231600 33014G22KT P6SM SCT060 BKN100
     FM232000 33014G22KT P6SM SCT100
     FM240100 26011KT P6SM FEW100=

USA.gov is the U.S. government's official web portal to all federal, state and local government web resources and services.